CSN3943 ZGHA-ZJSY
Flight info
| Callsign | CSN3943 |
|---|---|
| Flight time | 1h 43m |
| Altitude | 30100 |
| Route | OLT7W OLTUS R343 LBN/K0863S1070 W159 BHY W70 NYB/K0859S1100 G221 UPRIS UPRIS2C |
| Aircraft | A320/M-SDE3FGHIRWY/LB1 |
Departure
| Time | 2026-05-05 03:58 |
|---|---|
| Airport | Changsha Huanghua International Airport (ZGHA) |
Arrival
| Time | 2026-05-05 05:41 |
|---|---|
| Airport | Sanya Phoenix International Airport (ZJSY) |
| Time | Latitude | Longitude | Altitude | Speed | Heading |
|---|---|---|---|---|---|
| 2026-05-05 03:16 | 28.19709 | 113.21509 | 214 ft | 0 kts | 279° |
| 2026-05-05 03:47 | 28.19709 | 113.21510 | 214 ft | 1 kts | 279° |
| 2026-05-05 03:47 | 28.19705 | 113.21537 | 214 ft | 4 kts | 278° |
| 2026-05-05 03:47 | 28.19701 | 113.21568 | 215 ft | 4 kts | 279° |
| 2026-05-05 03:47 | 28.19696 | 113.21598 | 220 ft | 4 kts | 287° |
| 2026-05-05 03:48 | 28.19685 | 113.21623 | 216 ft | 2 kts | 313° |
| 2026-05-05 03:48 | 28.19668 | 113.21641 | 214 ft | 4 kts | 336° |
| 2026-05-05 03:48 | 28.19642 | 113.21646 | 215 ft | 4 kts | 4° |
| 2026-05-05 03:48 | 28.19626 | 113.21645 | 216 ft | 0 kts | 357° |
| 2026-05-05 03:52 | 28.19635 | 113.21645 | 214 ft | 2 kts | 357° |
| 2026-05-05 03:52 | 28.19656 | 113.21644 | 223 ft | 4 kts | 357° |
| 2026-05-05 03:53 | 28.19689 | 113.21642 | 214 ft | 6 kts | 357° |
| 2026-05-05 03:53 | 28.19732 | 113.21640 | 217 ft | 7 kts | 4° |
| 2026-05-05 03:53 | 28.19763 | 113.21682 | 217 ft | 8 kts | 79° |
| 2026-05-05 03:53 | 28.19796 | 113.21732 | 217 ft | 9 kts | 19° |
| 2026-05-05 03:54 | 28.19863 | 113.21731 | 218 ft | 10 kts | 357° |
| 2026-05-05 03:54 | 28.19941 | 113.21726 | 218 ft | 12 kts | 357° |
| 2026-05-05 03:54 | 28.20030 | 113.21721 | 214 ft | 14 kts | 357° |
| 2026-05-05 03:54 | 28.20131 | 113.21715 | 213 ft | 15 kts | 357° |
| 2026-05-05 03:55 | 28.20242 | 113.21708 | 219 ft | 17 kts | 356° |
| 2026-05-05 03:55 | 28.20361 | 113.21699 | 214 ft | 18 kts | 356° |
| 2026-05-05 03:55 | 28.20492 | 113.21692 | 214 ft | 20 kts | 356° |
| 2026-05-05 03:55 | 28.20601 | 113.21727 | 215 ft | 17 kts | 76° |
| 2026-05-05 03:56 | 28.20605 | 113.21782 | 217 ft | 4 kts | 88° |
| 2026-05-05 03:56 | 28.20606 | 113.21818 | 216 ft | 5 kts | 88° |
| 2026-05-05 03:56 | 28.20607 | 113.21858 | 216 ft | 5 kts | 95° |
| 2026-05-05 03:56 | 28.20572 | 113.21876 | 220 ft | 7 kts | 176° |
| 2026-05-05 03:57 | 28.20442 | 113.21884 | 220 ft | 48 kts | 177° |
| 2026-05-05 03:57 | 28.19886 | 113.21917 | 216 ft | 109 kts | 177° |
| 2026-05-05 03:57 | 28.18963 | 113.21979 | 217 ft | 155 kts | 176° |
| 2026-05-05 03:57 | 28.17811 | 113.22043 | 523 ft | 169 kts | 178° |
| 2026-05-05 03:58 | 28.16640 | 113.22106 | 1100 ft | 168 kts | 177° |
| 2026-05-05 03:58 | 28.15463 | 113.22178 | 1581 ft | 175 kts | 177° |
| 2026-05-05 03:58 | 28.14167 | 113.22260 | 1858 ft | 198 kts | 177° |
| 2026-05-05 03:58 | 28.12731 | 113.22352 | 2300 ft | 212 kts | 177° |
| 2026-05-05 03:59 | 28.11256 | 113.22451 | 3083 ft | 211 kts | 176° |
| 2026-05-05 03:59 | 28.09827 | 113.22589 | 3585 ft | 226 kts | 177° |
| 2026-05-05 03:59 | 28.08204 | 113.22699 | 4129 ft | 232 kts | 178° |
| 2026-05-05 03:59 | 28.06627 | 113.22784 | 5083 ft | 226 kts | 179° |
| 2026-05-05 04:00 | 28.05048 | 113.22868 | 5767 ft | 229 kts | 178° |
| 2026-05-05 04:00 | 28.03442 | 113.22953 | 6453 ft | 233 kts | 178° |
| 2026-05-05 04:00 | 28.01810 | 113.23040 | 7086 ft | 236 kts | 178° |
| 2026-05-05 04:00 | 28.00158 | 113.23135 | 7719 ft | 240 kts | 179° |
| 2026-05-05 04:01 | 27.98482 | 113.23233 | 8378 ft | 243 kts | 179° |
| 2026-05-05 04:01 | 27.96791 | 113.23192 | 9036 ft | 243 kts | 197° |
| 2026-05-05 04:01 | 27.95354 | 113.22305 | 9648 ft | 241 kts | 230° |
| 2026-05-05 04:01 | 27.94553 | 113.20687 | 10245 ft | 237 kts | 261° |
| 2026-05-05 04:02 | 27.94461 | 113.18828 | 10845 ft | 238 kts | 271° |
| 2026-05-05 04:02 | 27.94465 | 113.16947 | 11474 ft | 241 kts | 271° |
| 2026-05-05 04:02 | 27.94668 | 113.15070 | 12079 ft | 242 kts | 292° |
| 2026-05-05 04:02 | 27.95631 | 113.13517 | 12671 ft | 247 kts | 320° |
| 2026-05-05 04:03 | 27.97245 | 113.12675 | 12874 ft | 272 kts | 351° |
| 2026-05-05 04:03 | 27.99210 | 113.12514 | 13030 ft | 295 kts | 355° |
| 2026-05-05 04:03 | 28.01307 | 113.12397 | 13160 ft | 317 kts | 355° |
| 2026-05-05 04:03 | 28.03584 | 113.12275 | 13292 ft | 338 kts | 355° |
| 2026-05-05 04:04 | 28.05999 | 113.12139 | 13425 ft | 358 kts | 355° |
| 2026-05-05 04:04 | 28.08539 | 113.11892 | 13564 ft | 374 kts | 346° |
| 2026-05-05 04:04 | 28.10939 | 113.10676 | 13699 ft | 388 kts | 322° |
| 2026-05-05 04:04 | 28.12745 | 113.08365 | 13849 ft | 402 kts | 298° |
| 2026-05-05 04:05 | 28.13669 | 113.05359 | 14198 ft | 410 kts | 282° |
| 2026-05-05 04:05 | 28.13977 | 113.02132 | 14652 ft | 415 kts | 272° |
| 2026-05-05 04:05 | 28.13956 | 112.98853 | 15143 ft | 418 kts | 269° |
| 2026-05-05 04:05 | 28.13838 | 112.95555 | 15622 ft | 420 kts | 269° |
| 2026-05-05 04:06 | 28.13770 | 112.92279 | 16078 ft | 423 kts | 271° |
| 2026-05-05 04:06 | 28.13806 | 112.88938 | 16538 ft | 426 kts | 273° |
| 2026-05-05 04:06 | 28.13947 | 112.85579 | 16990 ft | 428 kts | 275° |
| 2026-05-05 04:06 | 28.14158 | 112.82206 | 17430 ft | 431 kts | 275° |
| 2026-05-05 04:07 | 28.14401 | 112.78814 | 17868 ft | 433 kts | 276° |
| 2026-05-05 04:07 | 28.14646 | 112.75405 | 18299 ft | 435 kts | 276° |
| 2026-05-05 04:07 | 28.14877 | 112.71977 | 18688 ft | 437 kts | 275° |
| 2026-05-05 04:07 | 28.15087 | 112.68579 | 19073 ft | 439 kts | 275° |
| 2026-05-05 04:08 | 28.15285 | 112.65124 | 19473 ft | 440 kts | 275° |
| 2026-05-05 04:08 | 28.15472 | 112.61657 | 19866 ft | 441 kts | 275° |
| 2026-05-05 04:08 | 28.15657 | 112.58183 | 20235 ft | 442 kts | 275° |
| 2026-05-05 04:08 | 28.15845 | 112.54701 | 20592 ft | 443 kts | 275° |
| 2026-05-05 04:09 | 28.16035 | 112.51211 | 20929 ft | 444 kts | 275° |
| 2026-05-05 04:09 | 28.16228 | 112.47712 | 21252 ft | 445 kts | 275° |
| 2026-05-05 04:09 | 28.16424 | 112.44215 | 21668 ft | 444 kts | 275° |
| 2026-05-05 04:09 | 28.16620 | 112.40734 | 22136 ft | 441 kts | 275° |
| 2026-05-05 04:10 | 28.16786 | 112.37320 | 22611 ft | 440 kts | 272° |
| 2026-05-05 04:10 | 28.16478 | 112.33871 | 23101 ft | 441 kts | 261° |
| 2026-05-05 04:10 | 28.15522 | 112.30562 | 23592 ft | 444 kts | 249° |
| 2026-05-05 04:10 | 28.13947 | 112.27537 | 24004 ft | 449 kts | 237° |
| 2026-05-05 04:11 | 28.11809 | 112.24939 | 24408 ft | 455 kts | 225° |
| 2026-05-05 04:11 | 28.09260 | 112.22788 | 24794 ft | 457 kts | 220° |
| 2026-05-05 04:11 | 28.06668 | 112.20708 | 25210 ft | 457 kts | 220° |
| 2026-05-05 04:11 | 28.04023 | 112.18715 | 25626 ft | 457 kts | 218° |
| 2026-05-05 04:12 | 28.01354 | 112.16844 | 26042 ft | 457 kts | 217° |
| 2026-05-05 04:12 | 27.98619 | 112.15011 | 26462 ft | 457 kts | 216° |
| 2026-05-05 04:12 | 27.95875 | 112.13201 | 26864 ft | 456 kts | 217° |
| 2026-05-05 04:12 | 27.93145 | 112.11378 | 27223 ft | 456 kts | 218° |
| 2026-05-05 04:13 | 27.90433 | 112.09523 | 27624 ft | 455 kts | 219° |
| 2026-05-05 04:13 | 27.87741 | 112.07644 | 28047 ft | 454 kts | 220° |
| 2026-05-05 04:13 | 27.85062 | 112.05754 | 28488 ft | 453 kts | 220° |
| 2026-05-05 04:13 | 27.82393 | 112.03867 | 28940 ft | 452 kts | 220° |
| 2026-05-05 04:14 | 27.79725 | 112.01985 | 29369 ft | 452 kts | 220° |
| 2026-05-05 04:14 | 27.77095 | 112.00137 | 29787 ft | 451 kts | 221° |
| 2026-05-05 04:14 | 27.74424 | 111.98270 | 30045 ft | 452 kts | 221° |
| 2026-05-05 04:14 | 27.71733 | 111.96394 | 30056 ft | 458 kts | 221° |
| 2026-05-05 04:15 | 27.66230 | 111.92557 | 30094 ft | 472 kts | 220° |
| 2026-05-05 04:15 | 27.60603 | 111.88638 | 30089 ft | 477 kts | 220° |
| 2026-05-05 04:16 | 27.54979 | 111.84738 | 30092 ft | 478 kts | 220° |
| 2026-05-05 04:16 | 27.49319 | 111.80810 | 30091 ft | 478 kts | 220° |
| 2026-05-05 04:17 | 27.43656 | 111.76878 | 30079 ft | 480 kts | 220° |
| 2026-05-05 04:17 | 27.37971 | 111.72935 | 30084 ft | 480 kts | 220° |
| 2026-05-05 04:18 | 27.32278 | 111.69001 | 30096 ft | 480 kts | 220° |
| 2026-05-05 04:18 | 27.26631 | 111.65099 | 30098 ft | 480 kts | 220° |
| 2026-05-05 04:19 | 27.20941 | 111.61171 | 30062 ft | 479 kts | 220° |
| 2026-05-05 04:19 | 27.15260 | 111.57272 | 30093 ft | 478 kts | 220° |
| 2026-05-05 04:20 | 27.09529 | 111.53472 | 30095 ft | 478 kts | 219° |
| 2026-05-05 04:20 | 27.03811 | 111.49751 | 30100 ft | 478 kts | 219° |
| 2026-05-05 04:21 | 26.98067 | 111.46007 | 30098 ft | 477 kts | 219° |
| 2026-05-05 04:21 | 26.92351 | 111.42252 | 30097 ft | 474 kts | 219° |
| 2026-05-05 04:22 | 26.86784 | 111.38364 | 30105 ft | 469 kts | 222° |
| 2026-05-05 04:22 | 26.81419 | 111.34326 | 30106 ft | 467 kts | 223° |
| 2026-05-05 04:23 | 26.76028 | 111.30272 | 30114 ft | 467 kts | 222° |
| 2026-05-05 04:23 | 26.70591 | 111.26282 | 30115 ft | 467 kts | 221° |
| 2026-05-05 04:24 | 26.65149 | 111.22328 | 30099 ft | 466 kts | 222° |
| 2026-05-05 04:25 | 26.57045 | 111.16418 | 30086 ft | 466 kts | 221° |
| 2026-05-05 04:25 | 26.51523 | 111.12579 | 30059 ft | 469 kts | 220° |
| 2026-05-05 04:26 | 26.45928 | 111.08832 | 30059 ft | 470 kts | 219° |
| 2026-05-05 04:26 | 26.40335 | 111.05070 | 30061 ft | 469 kts | 219° |
| 2026-05-05 04:27 | 26.34812 | 111.01304 | 30071 ft | 468 kts | 219° |
| 2026-05-05 04:27 | 26.29244 | 110.97501 | 30086 ft | 470 kts | 219° |
| 2026-05-05 04:28 | 26.23673 | 110.93714 | 30082 ft | 469 kts | 220° |
| 2026-05-05 04:28 | 26.18095 | 110.89929 | 30045 ft | 469 kts | 218° |
| 2026-05-05 04:29 | 26.12565 | 110.86184 | 30074 ft | 468 kts | 219° |
| 2026-05-05 04:29 | 26.06997 | 110.82417 | 30083 ft | 468 kts | 219° |
| 2026-05-05 04:30 | 26.01439 | 110.78652 | 30068 ft | 468 kts | 219° |
| 2026-05-05 04:30 | 25.95886 | 110.74870 | 30075 ft | 469 kts | 219° |
| 2026-05-05 04:31 | 25.90357 | 110.71108 | 30079 ft | 472 kts | 218° |
| 2026-05-05 04:31 | 25.84738 | 110.67300 | 30078 ft | 474 kts | 218° |
| 2026-05-05 04:32 | 25.79100 | 110.63485 | 30091 ft | 475 kts | 219° |
| 2026-05-05 04:32 | 25.73447 | 110.59672 | 30100 ft | 475 kts | 219° |
| 2026-05-05 04:33 | 25.67882 | 110.55833 | 30104 ft | 474 kts | 220° |
| 2026-05-05 04:33 | 25.62311 | 110.51940 | 30095 ft | 473 kts | 218° |
| 2026-05-05 04:34 | 25.56745 | 110.48054 | 30106 ft | 473 kts | 218° |
| 2026-05-05 04:34 | 25.51228 | 110.44117 | 30105 ft | 471 kts | 219° |
| 2026-05-05 04:35 | 25.45828 | 110.40107 | 30108 ft | 470 kts | 220° |
| 2026-05-05 04:35 | 25.40411 | 110.36061 | 30086 ft | 469 kts | 220° |
| 2026-05-05 04:36 | 25.35004 | 110.32016 | 30095 ft | 469 kts | 220° |
| 2026-05-05 04:36 | 25.29593 | 110.27983 | 30104 ft | 469 kts | 220° |
| 2026-05-05 04:37 | 25.24180 | 110.23966 | 30105 ft | 469 kts | 219° |
| 2026-05-05 04:37 | 25.18804 | 110.19980 | 30111 ft | 469 kts | 220° |
| 2026-05-05 04:38 | 25.13404 | 110.15952 | 30085 ft | 468 kts | 219° |
| 2026-05-05 04:38 | 25.08015 | 110.11928 | 30103 ft | 467 kts | 219° |
| 2026-05-05 04:39 | 25.02641 | 110.07916 | 30112 ft | 466 kts | 219° |
| 2026-05-05 04:39 | 24.97302 | 110.03944 | 30112 ft | 466 kts | 219° |
| 2026-05-05 04:40 | 24.91931 | 109.99957 | 30112 ft | 465 kts | 219° |
| 2026-05-05 04:40 | 24.86568 | 109.95969 | 30092 ft | 465 kts | 219° |
| 2026-05-05 04:41 | 24.81202 | 109.91992 | 30090 ft | 465 kts | 219° |
| 2026-05-05 04:41 | 24.75831 | 109.88017 | 30093 ft | 465 kts | 219° |
| 2026-05-05 04:42 | 24.70503 | 109.84073 | 30089 ft | 465 kts | 219° |
| 2026-05-05 04:42 | 24.65143 | 109.80102 | 30091 ft | 464 kts | 220° |
| 2026-05-05 04:43 | 24.59795 | 109.76110 | 30057 ft | 464 kts | 220° |
| 2026-05-05 04:43 | 24.54453 | 109.72130 | 30081 ft | 463 kts | 220° |
| 2026-05-05 04:44 | 24.49155 | 109.68196 | 30089 ft | 463 kts | 220° |
| 2026-05-05 04:44 | 24.43822 | 109.64246 | 30089 ft | 462 kts | 220° |
| 2026-05-05 04:45 | 24.38493 | 109.60300 | 30088 ft | 462 kts | 220° |
| 2026-05-05 04:45 | 24.33167 | 109.56365 | 30063 ft | 462 kts | 220° |
| 2026-05-05 04:46 | 24.27876 | 109.52472 | 30079 ft | 461 kts | 221° |
| 2026-05-05 04:46 | 24.22561 | 109.48561 | 30081 ft | 460 kts | 221° |
| 2026-05-05 04:47 | 24.17258 | 109.44641 | 30092 ft | 459 kts | 221° |
| 2026-05-05 04:47 | 24.11954 | 109.40738 | 30091 ft | 459 kts | 221° |
| 2026-05-05 04:48 | 24.06647 | 109.36845 | 30087 ft | 459 kts | 221° |
| 2026-05-05 04:48 | 24.01378 | 109.32987 | 30080 ft | 459 kts | 221° |
| 2026-05-05 04:49 | 23.96067 | 109.29101 | 30084 ft | 459 kts | 221° |
| 2026-05-05 04:49 | 23.90758 | 109.25213 | 30084 ft | 459 kts | 221° |
| 2026-05-05 04:50 | 23.85451 | 109.21330 | 30082 ft | 459 kts | 221° |
| 2026-05-05 04:50 | 23.80097 | 109.17587 | 30081 ft | 467 kts | 214° |
| 2026-05-05 04:50 | 23.77051 | 109.16258 | 30066 ft | 477 kts | 203° |
| 2026-05-05 04:51 | 23.73766 | 109.15533 | 30073 ft | 488 kts | 193° |
| 2026-05-05 04:51 | 23.70338 | 109.15469 | 30077 ft | 499 kts | 182° |
| 2026-05-05 04:51 | 23.66878 | 109.15899 | 30082 ft | 501 kts | 180° |
| 2026-05-05 04:52 | 23.59952 | 109.16826 | 30083 ft | 501 kts | 180° |
| 2026-05-05 04:52 | 23.53070 | 109.17745 | 30086 ft | 501 kts | 180° |
| 2026-05-05 04:53 | 23.46142 | 109.18662 | 30068 ft | 501 kts | 180° |
| 2026-05-05 04:53 | 23.39213 | 109.19570 | 30073 ft | 502 kts | 180° |
| 2026-05-05 04:54 | 23.32277 | 109.20489 | 30074 ft | 502 kts | 180° |
| 2026-05-05 04:54 | 23.25384 | 109.21400 | 30081 ft | 503 kts | 180° |
| 2026-05-05 04:55 | 23.18441 | 109.22310 | 30075 ft | 503 kts | 180° |
| 2026-05-05 04:55 | 23.11498 | 109.23217 | 30077 ft | 502 kts | 180° |
| 2026-05-05 04:56 | 23.04555 | 109.24119 | 30094 ft | 502 kts | 180° |
| 2026-05-05 04:56 | 22.97668 | 109.25024 | 30095 ft | 502 kts | 180° |
| 2026-05-05 04:57 | 22.90739 | 109.25932 | 30093 ft | 501 kts | 180° |
| 2026-05-05 04:57 | 22.83814 | 109.26834 | 30072 ft | 501 kts | 179° |
| 2026-05-05 04:58 | 22.76888 | 109.27748 | 30083 ft | 501 kts | 179° |
| 2026-05-05 04:58 | 22.69968 | 109.28650 | 30087 ft | 501 kts | 179° |
| 2026-05-05 04:59 | 22.63094 | 109.29554 | 30089 ft | 501 kts | 179° |
| 2026-05-05 04:59 | 22.56179 | 109.30470 | 30092 ft | 501 kts | 179° |
| 2026-05-05 05:00 | 22.49260 | 109.31387 | 30079 ft | 501 kts | 179° |
| 2026-05-05 05:00 | 22.42345 | 109.32296 | 30079 ft | 501 kts | 179° |
| 2026-05-05 05:01 | 22.35473 | 109.33195 | 30084 ft | 500 kts | 179° |
| 2026-05-05 05:01 | 22.28557 | 109.34096 | 30085 ft | 500 kts | 179° |
| 2026-05-05 05:02 | 22.21649 | 109.34999 | 30061 ft | 500 kts | 179° |
| 2026-05-05 05:02 | 22.14739 | 109.35906 | 30072 ft | 500 kts | 179° |
| 2026-05-05 05:03 | 22.07835 | 109.36805 | 30078 ft | 500 kts | 179° |
| 2026-05-05 05:03 | 22.00978 | 109.37690 | 30068 ft | 499 kts | 179° |
| 2026-05-05 05:04 | 21.94077 | 109.38578 | 30073 ft | 499 kts | 179° |
| 2026-05-05 05:04 | 21.87177 | 109.39478 | 30057 ft | 500 kts | 179° |
| 2026-05-05 05:05 | 21.80271 | 109.40382 | 30057 ft | 500 kts | 179° |
| 2026-05-05 05:05 | 21.73410 | 109.41266 | 30058 ft | 500 kts | 179° |
| 2026-05-05 05:06 | 21.66497 | 109.42152 | 30060 ft | 500 kts | 179° |
| 2026-05-05 05:06 | 21.59614 | 109.43385 | 30038 ft | 507 kts | 168° |
| 2026-05-05 05:07 | 21.53148 | 109.46579 | 30045 ft | 517 kts | 154° |
| 2026-05-05 05:07 | 21.46962 | 109.50421 | 30047 ft | 517 kts | 154° |
| 2026-05-05 05:08 | 21.40718 | 109.54270 | 30057 ft | 518 kts | 154° |
| 2026-05-05 05:08 | 21.34447 | 109.58066 | 30059 ft | 515 kts | 159° |
| 2026-05-05 05:09 | 21.27731 | 109.60411 | 30062 ft | 503 kts | 175° |
| 2026-05-05 05:09 | 21.20869 | 109.61423 | 30052 ft | 501 kts | 178° |
| 2026-05-05 05:10 | 21.13960 | 109.62425 | 30053 ft | 501 kts | 177° |
| 2026-05-05 05:10 | 21.07055 | 109.63424 | 30054 ft | 501 kts | 177° |
| 2026-05-05 05:11 | 21.00152 | 109.64424 | 30057 ft | 501 kts | 177° |
| 2026-05-05 05:11 | 20.93293 | 109.65422 | 30056 ft | 501 kts | 177° |
| 2026-05-05 05:12 | 20.86387 | 109.66418 | 30048 ft | 500 kts | 177° |
| 2026-05-05 05:12 | 20.79484 | 109.67418 | 30048 ft | 500 kts | 177° |
| 2026-05-05 05:13 | 20.72585 | 109.68418 | 30051 ft | 500 kts | 177° |
| 2026-05-05 05:13 | 20.65727 | 109.69403 | 30053 ft | 501 kts | 177° |
| 2026-05-05 05:14 | 20.58817 | 109.70396 | 30040 ft | 501 kts | 177° |
| 2026-05-05 05:14 | 20.51957 | 109.71868 | 30042 ft | 509 kts | 165° |
| 2026-05-05 05:15 | 20.45670 | 109.75452 | 30038 ft | 519 kts | 146° |
| 2026-05-05 05:15 | 20.40095 | 109.80283 | 30036 ft | 520 kts | 144° |
| 2026-05-05 05:16 | 20.34481 | 109.85149 | 30038 ft | 520 kts | 144° |
| 2026-05-05 05:16 | 20.28863 | 109.90003 | 30033 ft | 520 kts | 143° |
| 2026-05-05 05:17 | 20.23257 | 109.94853 | 30047 ft | 519 kts | 143° |
| 2026-05-05 05:17 | 20.17663 | 109.99697 | 30047 ft | 518 kts | 143° |
| 2026-05-05 05:18 | 20.12107 | 110.04505 | 30019 ft | 517 kts | 143° |
| 2026-05-05 05:18 | 20.09316 | 110.06908 | 29682 ft | 516 kts | 145° |
| 2026-05-05 05:18 | 20.06299 | 110.08927 | 29415 ft | 511 kts | 158° |
| 2026-05-05 05:18 | 20.02986 | 110.10203 | 29164 ft | 504 kts | 171° |
| 2026-05-05 05:19 | 19.99545 | 110.10702 | 28900 ft | 496 kts | 183° |
| 2026-05-05 05:19 | 19.96131 | 110.10445 | 28639 ft | 489 kts | 195° |
| 2026-05-05 05:19 | 19.92928 | 110.09501 | 28381 ft | 483 kts | 206° |
| 2026-05-05 05:19 | 19.89866 | 110.08059 | 28128 ft | 482 kts | 208° |
| 2026-05-05 05:20 | 19.86814 | 110.06582 | 27871 ft | 482 kts | 208° |
| 2026-05-05 05:20 | 19.83760 | 110.05103 | 27624 ft | 483 kts | 208° |
| 2026-05-05 05:20 | 19.80702 | 110.03623 | 27382 ft | 483 kts | 208° |
| 2026-05-05 05:20 | 19.77643 | 110.02145 | 27134 ft | 483 kts | 208° |
| 2026-05-05 05:21 | 19.74580 | 110.00668 | 26890 ft | 484 kts | 208° |
| 2026-05-05 05:21 | 19.71514 | 109.99188 | 26652 ft | 484 kts | 208° |
| 2026-05-05 05:21 | 19.68451 | 109.97710 | 26414 ft | 484 kts | 208° |
| 2026-05-05 05:21 | 19.65427 | 109.96253 | 26171 ft | 484 kts | 208° |
| 2026-05-05 05:22 | 19.62359 | 109.94773 | 25937 ft | 485 kts | 207° |
| 2026-05-05 05:22 | 19.59282 | 109.93291 | 25708 ft | 486 kts | 207° |
| 2026-05-05 05:22 | 19.56203 | 109.91812 | 25476 ft | 486 kts | 207° |
| 2026-05-05 05:22 | 19.53119 | 109.90337 | 25246 ft | 486 kts | 207° |
| 2026-05-05 05:23 | 19.50035 | 109.88863 | 25020 ft | 486 kts | 207° |
| 2026-05-05 05:23 | 19.46952 | 109.87388 | 24795 ft | 487 kts | 207° |
| 2026-05-05 05:23 | 19.43865 | 109.85909 | 24570 ft | 487 kts | 207° |
| 2026-05-05 05:23 | 19.40823 | 109.84450 | 24355 ft | 485 kts | 207° |
| 2026-05-05 05:24 | 19.37754 | 109.82976 | 24140 ft | 484 kts | 207° |
| 2026-05-05 05:24 | 19.34688 | 109.81503 | 23914 ft | 482 kts | 207° |
| 2026-05-05 05:24 | 19.31637 | 109.80045 | 23698 ft | 480 kts | 207° |
| 2026-05-05 05:24 | 19.28590 | 109.78600 | 23478 ft | 479 kts | 206° |
| 2026-05-05 05:25 | 19.25551 | 109.77164 | 23210 ft | 478 kts | 206° |
| 2026-05-05 05:25 | 19.22519 | 109.75729 | 22958 ft | 476 kts | 206° |
| 2026-05-05 05:25 | 19.19507 | 109.74288 | 22703 ft | 474 kts | 207° |
| 2026-05-05 05:25 | 19.16551 | 109.72862 | 22457 ft | 472 kts | 207° |
| 2026-05-05 05:26 | 19.13570 | 109.71418 | 22198 ft | 470 kts | 206° |
| 2026-05-05 05:26 | 19.10604 | 109.69981 | 21952 ft | 469 kts | 207° |
| 2026-05-05 05:26 | 19.07640 | 109.68550 | 21709 ft | 467 kts | 207° |
| 2026-05-05 05:26 | 19.04687 | 109.67126 | 21459 ft | 465 kts | 206° |
| 2026-05-05 05:27 | 19.01745 | 109.65712 | 21221 ft | 464 kts | 206° |
| 2026-05-05 05:27 | 18.98812 | 109.64304 | 20979 ft | 462 kts | 206° |
| 2026-05-05 05:27 | 18.93000 | 109.61512 | 19363 ft | 456 kts | 206° |
| 2026-05-05 05:28 | 18.90160 | 109.60145 | 18499 ft | 453 kts | 206° |
| 2026-05-05 05:28 | 18.87312 | 109.58776 | 17661 ft | 446 kts | 206° |
| 2026-05-05 05:28 | 18.84509 | 109.57430 | 16636 ft | 434 kts | 206° |
| 2026-05-05 05:28 | 18.81795 | 109.56130 | 15817 ft | 426 kts | 206° |
| 2026-05-05 05:29 | 18.79098 | 109.54835 | 14981 ft | 425 kts | 206° |
| 2026-05-05 05:29 | 18.76409 | 109.53545 | 14198 ft | 424 kts | 206° |
| 2026-05-05 05:29 | 18.73731 | 109.52262 | 13374 ft | 422 kts | 206° |
| 2026-05-05 05:29 | 18.71067 | 109.50985 | 12638 ft | 419 kts | 206° |
| 2026-05-05 05:30 | 18.68462 | 109.49735 | 11985 ft | 413 kts | 205° |
| 2026-05-05 05:30 | 18.65851 | 109.48483 | 11320 ft | 410 kts | 206° |
| 2026-05-05 05:30 | 18.63316 | 109.47268 | 11186 ft | 390 kts | 206° |
| 2026-05-05 05:30 | 18.60902 | 109.46114 | 11057 ft | 371 kts | 206° |
| 2026-05-05 05:31 | 18.58606 | 109.45015 | 10931 ft | 354 kts | 206° |
| 2026-05-05 05:31 | 18.56410 | 109.43963 | 10822 ft | 339 kts | 206° |
| 2026-05-05 05:31 | 18.54299 | 109.42955 | 10698 ft | 325 kts | 206° |
| 2026-05-05 05:31 | 18.52277 | 109.41989 | 10587 ft | 313 kts | 206° |
| 2026-05-05 05:32 | 18.50356 | 109.41055 | 10470 ft | 303 kts | 209° |
| 2026-05-05 05:32 | 18.48630 | 109.39837 | 10254 ft | 295 kts | 223° |
| 2026-05-05 05:32 | 18.47246 | 109.38283 | 10140 ft | 290 kts | 233° |
| 2026-05-05 05:32 | 18.45985 | 109.36624 | 10027 ft | 289 kts | 232° |
| 2026-05-05 05:33 | 18.44712 | 109.34968 | 9639 ft | 294 kts | 232° |
| 2026-05-05 05:33 | 18.43424 | 109.33299 | 9262 ft | 294 kts | 232° |
| 2026-05-05 05:33 | 18.42138 | 109.31640 | 8934 ft | 291 kts | 232° |
| 2026-05-05 05:33 | 18.40860 | 109.29991 | 8535 ft | 288 kts | 232° |
| 2026-05-05 05:34 | 18.39620 | 109.28375 | 7903 ft | 287 kts | 235° |
| 2026-05-05 05:34 | 18.38674 | 109.26549 | 7313 ft | 283 kts | 251° |
| 2026-05-05 05:34 | 18.38245 | 109.24555 | 6799 ft | 277 kts | 263° |
| 2026-05-05 05:34 | 18.37995 | 109.22550 | 6317 ft | 276 kts | 263° |
| 2026-05-05 05:35 | 18.37735 | 109.20537 | 6020 ft | 275 kts | 263° |
| 2026-05-05 05:35 | 18.37375 | 109.18600 | 5885 ft | 266 kts | 247° |
| 2026-05-05 05:35 | 18.36246 | 109.17144 | 5764 ft | 256 kts | 211° |
| 2026-05-05 05:35 | 18.34585 | 109.16663 | 5591 ft | 248 kts | 178° |
| 2026-05-05 05:36 | 18.32889 | 109.16854 | 5253 ft | 249 kts | 172° |
| 2026-05-05 05:36 | 18.31147 | 109.17106 | 4692 ft | 259 kts | 172° |
| 2026-05-05 05:36 | 18.29378 | 109.17405 | 4280 ft | 255 kts | 164° |
| 2026-05-05 05:36 | 18.27932 | 109.18361 | 4092 ft | 245 kts | 126° |
| 2026-05-05 05:37 | 18.27355 | 109.19994 | 3727 ft | 242 kts | 89° |
| 2026-05-05 05:37 | 18.27663 | 109.21742 | 3317 ft | 245 kts | 76° |
| 2026-05-05 05:37 | 18.27975 | 109.23502 | 2986 ft | 243 kts | 81° |
| 2026-05-05 05:37 | 18.28200 | 109.25219 | 2696 ft | 230 kts | 81° |
| 2026-05-05 05:38 | 18.28405 | 109.26819 | 2416 ft | 218 kts | 81° |
| 2026-05-05 05:38 | 18.28604 | 109.28347 | 2171 ft | 204 kts | 82° |
| 2026-05-05 05:38 | 18.28792 | 109.29780 | 1878 ft | 191 kts | 82° |
| 2026-05-05 05:38 | 18.28964 | 109.31088 | 1664 ft | 169 kts | 82° |
| 2026-05-05 05:39 | 18.29117 | 109.32259 | 1445 ft | 156 kts | 82° |
| 2026-05-05 05:39 | 18.29264 | 109.33376 | 1249 ft | 153 kts | 82° |
| 2026-05-05 05:39 | 18.29408 | 109.34475 | 1058 ft | 150 kts | 83° |
| 2026-05-05 05:39 | 18.29548 | 109.35561 | 833 ft | 149 kts | 82° |
| 2026-05-05 05:40 | 18.29689 | 109.36622 | 642 ft | 148 kts | 84° |
| 2026-05-05 05:40 | 18.29826 | 109.37695 | 418 ft | 147 kts | 84° |
| 2026-05-05 05:40 | 18.29961 | 109.38756 | 275 ft | 147 kts | 85° |
| 2026-05-05 05:40 | 18.30106 | 109.39821 | 96 ft | 146 kts | 83° |
| 2026-05-05 05:41 | 18.30232 | 109.40766 | 71 ft | 99 kts | 82° |
| 2026-05-05 05:41 | 18.30287 | 109.41182 | 89 ft | 28 kts | 82° |
| 2026-05-05 05:41 | 18.30369 | 109.41315 | 87 ft | 22 kts | 359° |
| 2026-05-05 05:41 | 18.30529 | 109.41291 | 86 ft | 23 kts | 353° |
| 2026-05-05 05:42 | 18.30681 | 109.41267 | 88 ft | 21 kts | 351° |
| 2026-05-05 05:42 | 18.30781 | 109.41212 | 87 ft | 17 kts | 280° |
| 2026-05-05 05:42 | 18.30763 | 109.41081 | 87 ft | 12 kts | 274° |
| 2026-05-05 05:42 | 18.30763 | 109.41051 | 85 ft | 2 kts | 267° |
| 2026-05-05 05:43 | 18.30763 | 109.41023 | 84 ft | 5 kts | 271° |
| 2026-05-05 05:43 | 18.30787 | 109.41016 | 87 ft | 5 kts | 352° |
| 2026-05-05 05:43 | 18.30828 | 109.41011 | 86 ft | 7 kts | 353° |
| 2026-05-05 05:43 | 18.30852 | 109.41007 | 85 ft | 1 kts | 353° |
| 2026-05-05 05:44 | 18.30858 | 109.41007 | 85 ft | 0 kts | 353° |